Station info - map view · info · telemetry · weather · raw · status · beacons · messages · bulletins · browse · moving · my account
Callsign, ship name or locator: Clear       
It is possible to search using wildcards (*?) after a prefix. Example: OH*
APRS station DD6ES-9 - show graphs
Map loading...
Mic-E message: En route
Location: 54°51.94' N 9°19.81' E - locator JO44PU97OS - show map - static map
3.0 miles Northwest bearing 335° from Padborg, Åbenrå Kommune, South Denmark, Denmark [?]
3.0 miles West bearing 290° from Kruså, Åbenrå Kommune, South Denmark, Denmark
49.5 miles Northwest bearing 320° from Kiel, Schleswig-Holstein, Germany
87.8 miles Northwest bearing 322° from Lübeck (Luebeck), Schleswig-Holstein, Germany
Last position: 2019-04-20 10:30:58 EDT (18h22m ago)
2019-04-20 16:30:58 CEST local time at Padborg, Denmark [?]
Altitude: 105 ft
Course: 294°
Speed: 39 MPH
Device: Kenwood: TM-D710 (rig)
Last path: DD6ES-9>UT5QY4 via WIDE1-1,WIDE2-2,qAR,OZ1RON (good)
Positions stored: 13131
Packet rate: 243 seconds between packets on average during 8514 seconds.
Stations near current position of DD6ES-9 - show more
callsign distance last heard - EDT      callsign distance last heard - EDT
EW85425.3 miles 321°2019-04-21 04:51:20 DO5FL7.0 miles 151°2019-04-06 12:39:59
DL6BEN7.6 miles 135°2019-04-20 07:27:54 PS-DM0FL8.6 miles 126°2019-04-19 16:40:36
DB0IR B9.1 miles 177°2019-04-21 04:40:21 DB0IR-B9.1 miles 177°2019-04-21 04:40:31
OZ1RON9.2 miles 78°2019-04-20 19:07:29 OZ1RON-99.2 miles 78°2019-04-20 13:24:56
DK9WE-710.0 miles 76°2019-04-20 11:37:16 DW852910.4 miles 42°2019-04-21 04:52:12
OZ1VLH-911.1 miles 4°2019-04-20 03:05:59 OZ5DIA-214.6 miles 62°2019-04-17 14:54:37
OZ1VLH-115.2 miles 290°2019-04-21 01:30:50 OZ0F15.5 miles 69°2019-04-21 04:30:16
OZ0F B15.5 miles 69°2019-04-21 04:50:38 OZ0F-B15.5 miles 69°2019-04-21 04:50:48
CW799216.6 miles 272°2019-04-21 04:46:12 OZ0ES-819.0 miles 77°2019-04-12 02:58:58
OZ5TD-DP19.0 miles 287°2019-04-05 00:21:39 OZ5RTD-DP19.1 miles 287°2019-04-21 04:43:17
Stations which heard DD6ES-9 directly on radio –
callsign pkts first heard - EDT last heard longest (tx => rx) longest at - EDT
DB0HHN 20 2019-04-20 04:57:21 2019-04-20 08:39:20 JO44XB > JO53AS 18.7 miles 163° 2019-04-20 08:39:20
OZ1RON 13 2019-04-20 09:47:14 2019-04-20 10:30:58 JO44QS > JO44SV 11.8 miles 45° 2019-04-20 10:20:20
DB0FUZ 4 2019-04-20 01:45:58 2019-04-20 01:51:45 JO62RL > JO62TK 6.2 miles 108° 2019-04-20 01:51:45
DM0DM 3 2019-04-20 01:49:50 2019-04-20 01:56:05 JO62RK > JO62RM 4.4 miles 346° 2019-04-20 01:49:50
DB0WOA-10 1 2019-04-20 09:03:00 2019-04-20 09:03:00 JO44UH > JO44QA 25.5 miles 214° 2019-04-20 09:03:00
DB0FS-10 10 2019-04-20 04:47:30 2019-04-20 05:12:23 JO53FN > JO43XO 22.0 miles 276° 2019-04-20 04:47:30
DB0HHW 2 2019-04-20 04:56:46 2019-04-20 04:58:32 JO53CN > JO43TQ 24.5 miles 290° 2019-04-20 04:56:46
DB0LDS 1 2019-04-20 01:49:03 2019-04-20 01:49:03 JO62RK > JO62TH 10.9 miles 145° 2019-04-20 01:49:03
DO1LKD 7 2019-04-20 08:55:39 2019-04-20 09:04:26 JO44VG > JO44WJ 10.3 miles 12° 2019-04-20 08:55:39
DD3TF-5 2 2019-04-20 05:00:03 2019-04-20 05:02:12 JO53CN > JO53AP 7.3 miles 310° 2019-04-20 05:00:03
DM0ADA 34 2019-04-20 03:33:49 2019-04-20 04:24:59 JO53NL > JO53SJ 18.2 miles 113° 2019-04-20 04:24:59
DB0LY 2 2019-04-20 02:56:47 2019-04-20 03:11:50 JO63FD > JO63PF 34.0 miles 80° 2019-04-20 03:11:50
DB0BLO 1 2019-04-20 01:55:21 2019-04-20 01:55:21 JO62QL > JO62RM 6.2 miles 44° 2019-04-20 01:55:21
DB0OHV 1 2019-04-20 02:21:49 2019-04-20 02:21:49 JO62OQ > JO62PQ 3.0 miles 125° 2019-04-20 02:21:49
DG9LZ 20 2019-04-20 05:21:55 2019-04-20 08:19:50 JO53DV > JO53DW 3.4 miles 15° 2019-04-20 05:21:55
DB0BBB 1 2019-04-20 01:50:34 2019-04-20 01:50:34 JO62RK > JO62SQ 15.9 miles 19° 2019-04-20 01:50:34
DB0TGO-15 9 2019-04-20 01:58:59 2019-04-20 02:25:24 JO62NQ > JO62ON 10.3 miles 156° 2019-04-20 02:25:24

Only position packets which were originated by the station are shown here. The range statistics show some extra long hops, because some digipeaters do not correctly add themselves to the digipeater path. Please check the raw packets.
About this site
This page shows real-time information collected from the Automatic Position Reporting System Internet network (APRS-IS). APRS is used by amateur (ham) radio operators to transmit real-time position information, weather data, telemetry and messages over the radio. A vehicle equipped with a GPS receiver, a VHF transmitter or HF transceiver and a small computer device called a tracker transmits it's location, speed and course in a small data packet, which is then received by a nearby iGate receiving site which forwards the packet on the Internet. Systems connected to the Internet can send information on the APRS-IS without a radio transmitter, or collect and display information transmitted anywhere in the world.
FAQ · Blog · Discussion group · Linking to aprs.fi · AIS sites · Service status · Database statistics · Advertising on aprs.fi · Technical details · API · Change log · Planned changes · Credits and thanks · Terms Of Service · iPhone/iPad APRS